Time;durP1;ratioP1;P1;durP2;ratioP2;P2;SDS_P1;SDS_P2;PMS_P1;PMS_P2;Temp;Humidity;BMP_temperature;BMP_pressure;BME280_temperature;BME280_humidity;BME280_pressure;Samples;Min_cycle;Max_cycle;Signal;HPM_P1;HPM_P2
2023/06/20 00:00:20;;;;;;;16.87;12.93;;;17.70;83.00;;;;;;5046863;28;20057;-68
2023/06/20 00:02:46;;;;;;;16.73;12.93;;;17.60;82.70;;;;;;5036025;28;20051;-68
2023/06/20 00:05:11;;;;;;;19.97;13.07;;;17.60;82.90;;;;;;5045740;28;20040;-68
2023/06/20 00:07:37;;;;;;;16.73;13.23;;;17.50;82.80;;;;;;5046318;28;20057;-68
2023/06/20 00:10:03;;;;;;;18.43;13.87;;;17.50;82.60;;;;;;5046480;28;20107;-68
2023/06/20 00:12:28;;;;;;;15.33;12.00;;;17.40;82.80;;;;;;5038817;28;20120;-68
2023/06/20 00:14:55;;;;;;;16.50;13.07;;;17.40;82.90;;;;;;5046607;28;20044;-68
2023/06/20 00:17:21;;;;;;;19.13;13.03;;;17.30;82.90;;;;;;5046501;28;20033;-68
2023/06/20 00:19:47;;;;;;;16.67;13.20;;;17.30;83.10;;;;;;5046683;28;20280;-68
2023/06/20 00:22:12;;;;;;;18.63;13.47;;;17.20;83.80;;;;;;5046368;28;20107;-68
2023/06/20 00:24:38;;;;;;;18.00;13.03;;;17.20;83.90;;;;;;5046989;28;20669;-68
2023/06/20 00:27:04;;;;;;;16.67;13.07;;;17.20;83.90;;;;;;5046512;28;20124;-68
2023/06/20 00:29:29;;;;;;;17.50;13.87;;;17.10;83.90;;;;;;5047077;28;20049;-68
2023/06/20 00:31:55;;;;;;;17.23;13.20;;;17.10;84.50;;;;;;5045894;28;20045;-68
2023/06/20 00:34:21;;;;;;;20.13;13.97;;;17.10;84.20;;;;;;5039770;28;20123;-68
2023/06/20 00:36:46;;;;;;;18.80;14.00;;;17.10;84.30;;;;;;5047090;28;20036;-68
2023/06/20 00:39:12;;;;;;;18.40;13.73;;;17.00;84.30;;;;;;5062149;28;20048;-68
2023/06/20 00:41:39;;;;;;;20.33;12.97;;;17.00;84.50;;;;;;5046853;28;20041;-68
2023/06/20 00:44:05;;;;;;;17.70;12.77;;;16.90;84.30;;;;;;5027748;28;20040;-68
2023/06/20 00:46:40;;;;;;;18.63;13.13;;;16.90;84.50;;;;;;5042128;28;20795;-68
2023/06/20 00:49:08;;;;;;;20.17;13.63;;;16.90;84.50;;;;;;5045995;28;20291;-68
2023/06/20 00:51:37;;;;;;;19.20;13.53;;;16.80;84.40;;;;;;5029657;28;20866;-68
2023/06/20 00:54:03;;;;;;;16.33;12.77;;;16.80;85.10;;;;;;5037349;28;20365;-68
2023/06/20 00:56:29;;;;;;;16.03;13.07;;;16.80;84.90;;;;;;5046403;28;20279;-68
2023/06/20 00:58:55;;;;;;;17.80;13.70;;;16.80;85.30;;;;;;5046365;28;20958;-68
2023/06/20 01:01:21;;;;;;;17.90;13.43;;;16.80;85.20;;;;;;5046690;28;20286;-68
2023/06/20 01:03:50;;;;;;;16.43;13.07;;;16.80;85.70;;;;;;5046209;28;20045;-68
2023/06/20 01:06:32;;;;;;;16.80;12.77;;;16.80;86.30;;;;;;5066096;28;20280;-68
2023/06/20 01:09:08;;;;;;;20.00;12.73;;;16.80;86.50;;;;;;5049774;28;20297;-67
2023/06/20 01:11:50;;;;;;;16.90;13.17;;;16.80;86.90;;;;;;5048045;28;20383;-67
2023/06/20 01:14:43;;;;;;;18.77;13.03;;;16.80;87.50;;;;;;5049581;28;20288;-67
2023/06/20 01:17:31;;;;;;;17.90;12.93;;;16.80;87.30;;;;;;5044424;28;20342;-68
2023/06/20 01:20:04;;;;;;;20.70;13.73;;;16.80;88.20;;;;;;5044776;28;20295;-68
2023/06/20 01:22:56;;;;;;;22.70;13.60;;;16.90;87.70;;;;;;5046781;28;21650;-67
2023/06/20 01:25:46;;;;;;;17.90;13.23;;;16.90;88.40;;;;;;5042422;28;20345;-68
2023/06/20 01:28:42;;;;;;;18.27;12.93;;;16.90;89.50;;;;;;5040367;28;20291;-68
2023/06/20 01:31:11;;;;;;;18.50;13.67;;;16.90;89.30;;;;;;5063422;28;20342;-68
2023/06/20 01:33:56;;;;;;;18.73;13.50;;;17.00;89.40;;;;;;5049018;28;20295;-68
2023/06/20 01:36:24;;;;;;;21.23;13.80;;;17.00;89.80;;;;;;5049002;28;20322;-68
2023/06/20 01:38:57;;;;;;;20.53;14.40;;;17.00;89.30;;;;;;5049219;28;20287;-68
2023/06/20 01:41:24;;;;;;;21.50;13.83;;;17.00;90.30;;;;;;5049193;28;20828;-68
2023/06/20 01:43:51;;;;;;;23.03;14.63;;;17.00;90.20;;;;;;5049144;28;20298;-68
2023/06/20 01:46:19;;;;;;;19.40;14.50;;;17.00;89.60;;;;;;5048537;28;20304;-68
2023/06/20 01:48:47;;;;;;;20.60;13.73;;;17.00;89.80;;;;;;5048306;28;20295;-68
2023/06/20 01:51:15;;;;;;;19.80;14.43;;;17.00;89.80;;;;;;5049243;28;20811;-68
2023/06/20 01:53:42;;;;;;;22.10;15.20;;;17.00;89.70;;;;;;5048539;28;20306;-68
2023/06/20 01:56:10;;;;;;;20.40;14.67;;;17.00;90.00;;;;;;5048907;28;20370;-68
2023/06/20 01:58:37;;;;;;;21.57;15.93;;;17.00;89.80;;;;;;5048340;28;20290;-68
2023/06/20 02:01:04;;;;;;;21.93;15.30;;;17.00;90.30;;;;;;5049049;28;20271;-68
2023/06/20 02:03:31;;;;;;;21.70;15.33;;;17.00;90.70;;;;;;5047628;28;20287;-68
2023/06/20 02:05:59;;;;;;;20.60;15.77;;;17.10;91.10;;;;;;5048477;28;20295;-68
2023/06/20 02:08:26;;;;;;;25.40;17.13;;;17.10;91.10;;;;;;5048971;28;20369;-68
2023/06/20 02:10:53;;;;;;;25.17;16.30;;;17.10;91.20;;;;;;5048312;28;20275;-68
2023/06/20 02:13:21;;;;;;;24.60;17.07;;;17.20;91.50;;;;;;5048274;28;20286;-68
2023/06/20 02:15:51;;;;;;;27.93;17.03;;;17.20;91.40;;;;;;5047139;28;20276;-68
2023/06/20 02:18:17;;;;;;;25.43;17.50;;;17.20;91.50;;;;;;5048185;28;20284;-68
2023/06/20 02:20:43;;;;;;;22.70;15.77;;;17.20;92.30;;;;;;5048068;28;20287;-68
2023/06/20 02:23:09;;;;;;;23.33;16.40;;;17.30;91.80;;;;;;5048406;28;20225;-68
2023/06/20 02:25:39;;;;;;;21.83;16.93;;;17.30;91.80;;;;;;5047832;28;20037;-68
2023/06/20 02:28:07;;;;;;;27.40;16.73;;;17.30;91.60;;;;;;5048313;28;20319;-68
2023/06/20 02:30:35;;;;;;;22.00;15.17;;;17.20;91.90;;;;;;5047414;28;20333;-68
2023/06/20 02:33:05;;;;;;;21.53;14.80;;;17.30;91.60;;;;;;5048393;28;20381;-68
2023/06/20 02:35:33;;;;;;;21.60;14.87;;;17.20;91.30;;;;;;5045235;28;20282;-68
2023/06/20 02:38:00;;;;;;;20.07;15.07;;;17.20;91.00;;;;;;5048286;28;20275;-68
2023/06/20 02:40:26;;;;;;;18.70;14.80;;;17.20;90.60;;;;;;5046567;28;20279;-68
2023/06/20 02:42:52;;;;;;;20.07;14.83;;;17.20;90.60;;;;;;5042222;28;20321;-68
2023/06/20 02:45:19;;;;;;;17.30;13.73;;;17.20;90.30;;;;;;5059237;28;20127;-68
2023/06/20 02:48:16;;;;;;;20.60;13.97;;;17.20;90.10;;;;;;5047527;28;20303;-68
2023/06/20 02:50:51;;;;;;;19.37;13.97;;;17.20;90.30;;;;;;5047631;28;20822;-68
2023/06/20 02:53:25;;;;;;;16.67;13.20;;;17.20;90.10;;;;;;5044671;28;20302;-68
2023/06/20 02:56:01;;;;;;;17.33;13.00;;;17.20;90.10;;;;;;5064124;28;20049;-68
2023/06/20 02:58:29;;;;;;;19.10;12.90;;;17.20;89.70;;;;;;5047182;28;20029;-68
2023/06/20 03:00:58;;;;;;;17.00;13.30;;;17.10;89.90;;;;;;5047432;28;20418;-68
2023/06/20 03:03:36;;;;;;;18.37;12.77;;;17.20;89.40;;;;;;5045116;28;20366;-68
2023/06/20 03:06:02;;;;;;;18.13;13.03;;;17.10;89.30;;;;;;5045466;28;20301;-68
2023/06/20 03:08:30;;;;;;;20.97;13.37;;;17.10;89.20;;;;;;5047267;28;20607;-68
2023/06/20 03:10:57;;;;;;;19.20;13.23;;;17.10;89.40;;;;;;5046911;28;20631;-68
2023/06/20 03:13:24;;;;;;;16.67;12.63;;;17.10;89.40;;;;;;5047252;28;20871;-68
2023/06/20 03:15:50;;;;;;;15.30;12.90;;;17.10;89.10;;;;;;5043114;28;20284;-68
2023/06/20 03:18:19;;;;;;;17.53;12.17;;;17.10;88.90;;;;;;5046887;28;20275;-68
2023/06/20 03:20:46;;;;;;;18.03;12.47;;;17.10;88.90;;;;;;5046456;28;20054;-68
2023/06/20 03:23:12;;;;;;;15.63;11.33;;;17.10;88.70;;;;;;5046891;28;20357;-68
2023/06/20 03:25:38;;;;;;;16.13;12.10;;;17.10;88.90;;;;;;5029868;28;20296;-67
2023/06/20 03:28:04;;;;;;;14.53;11.23;;;17.10;88.70;;;;;;5047386;28;20072;-68
2023/06/20 03:30:30;;;;;;;16.00;11.60;;;17.20;88.60;;;;;;5046866;28;20310;-68
2023/06/20 03:32:55;;;;;;;14.97;11.57;;;17.20;88.80;;;;;;5046921;28;20057;-68
2023/06/20 03:35:21;;;;;;;15.33;11.67;;;17.20;88.70;;;;;;5042638;28;20057;-68
2023/06/20 03:37:47;;;;;;;14.87;11.43;;;17.20;88.60;;;;;;5047223;28;20032;-68
2023/06/20 03:40:12;;;;;;;14.67;11.37;;;17.20;88.50;;;;;;5046141;28;20045;-68
2023/06/20 03:42:38;;;;;;;16.13;10.93;;;17.30;88.60;;;;;;5029737;28;20040;-68
2023/06/20 03:45:04;;;;;;;14.90;11.27;;;17.20;88.60;;;;;;5046099;28;20523;-68
2023/06/20 03:47:30;;;;;;;15.80;11.00;;;17.30;88.60;;;;;;5046937;28;20047;-68
2023/06/20 03:49:56;;;;;;;15.97;10.33;;;17.30;88.40;;;;;;5046790;28;20702;-68
2023/06/20 03:52:22;;;;;;;14.70;10.67;;;17.30;88.40;;;;;;5046829;28;20037;-68
2023/06/20 03:54:47;;;;;;;16.53;10.67;;;17.40;88.10;;;;;;5045556;28;20175;-68
2023/06/20 03:57:13;;;;;;;13.80;10.90;;;17.40;87.70;;;;;;5046682;28;20037;-68
2023/06/20 03:59:39;;;;;;;13.53;10.97;;;17.40;87.50;;;;;;5046630;28;20091;-68
2023/06/20 04:02:04;;;;;;;15.30;10.57;;;17.50;87.00;;;;;;5046366;28;20044;-68
2023/06/20 04:04:30;;;;;;;15.13;11.10;;;17.50;86.80;;;;;;5039040;28;20469;-68
2023/06/20 04:06:56;;;;;;;13.17;10.43;;;17.50;86.80;;;;;;5047986;28;20087;-68
2023/06/20 04:09:26;;;;;;;12.63;9.47;;;17.60;86.30;;;;;;5043617;28;20507;-68
2023/06/20 04:11:52;;;;;;;15.67;10.13;;;17.60;85.80;;;;;;5045941;28;20615;-68
2023/06/20 04:14:18;;;;;;;15.03;10.13;;;17.70;85.70;;;;;;5046741;28;20647;-68
2023/06/20 04:16:47;;;;;;;14.57;9.67;;;17.70;85.30;;;;;;5046138;28;20284;-68
2023/06/20 04:19:14;;;;;;;18.63;9.60;;;17.80;85.20;;;;;;5046622;28;20045;-68
2023/06/20 04:21:40;;;;;;;14.17;9.30;;;17.80;85.10;;;;;;5045931;28;20299;-68
2023/06/20 04:24:06;;;;;;;15.57;10.13;;;17.80;85.10;;;;;;5046742;28;20798;-68
2023/06/20 04:26:31;;;;;;;12.30;9.50;;;17.90;84.40;;;;;;5042231;28;20291;-68
2023/06/20 04:28:57;;;;;;;14.00;9.80;;;18.00;84.60;;;;;;5045960;28;20063;-68
2023/06/20 04:31:24;;;;;;;11.07;9.00;;;18.00;84.60;;;;;;5062028;28;20045;-68
2023/06/20 04:33:50;;;;;;;14.73;10.07;;;18.10;84.20;;;;;;5029584;28;20500;-68
2023/06/20 04:36:15;;;;;;;13.10;9.50;;;18.10;84.20;;;;;;5046072;28;20279;-68
2023/06/20 04:38:42;;;;;;;12.50;10.23;;;18.20;84.40;;;;;;5048348;28;20072;-68
2023/06/20 04:41:09;;;;;;;14.63;9.77;;;18.20;84.90;;;;;;5045547;28;20064;-68
2023/06/20 04:43:35;;;;;;;14.20;9.70;;;18.30;85.20;;;;;;5050072;28;20805;-68
2023/06/20 04:46:01;;;;;;;13.90;9.63;;;18.30;85.00;;;;;;5044771;28;20290;-68
2023/06/20 04:48:36;;;;;;;12.37;9.07;;;18.30;85.30;;;;;;5062990;28;20382;-68
2023/06/20 04:51:02;;;;;;;14.63;10.43;;;18.30;85.10;;;;;;5045906;28;20741;-68
2023/06/20 04:53:29;;;;;;;13.67;9.90;;;18.30;84.90;;;;;;5050297;28;20492;-68
2023/06/20 04:55:55;;;;;;;13.73;9.97;;;18.30;84.90;;;;;;5042458;28;20295;-68
2023/06/20 04:58:21;;;;;;;15.47;10.37;;;18.30;84.60;;;;;;5048927;28;20690;-68
2023/06/20 05:00:48;;;;;;;16.37;10.53;;;18.30;84.30;;;;;;5045868;28;20279;-68
2023/06/20 05:03:14;;;;;;;13.80;10.60;;;18.30;84.30;;;;;;5046436;28;20091;-68
2023/06/20 05:05:40;;;;;;;15.07;10.73;;;18.30;84.30;;;;;;5058531;28;20315;-68
2023/06/20 05:08:06;;;;;;;13.17;10.10;;;18.30;84.10;;;;;;5049189;28;20508;-68
2023/06/20 05:10:31;;;;;;;14.37;10.10;;;18.30;84.30;;;;;;5049956;28;20286;-67
2023/06/20 05:12:57;;;;;;;13.97;10.03;;;18.30;83.80;;;;;;5049923;28;20519;-67
2023/06/20 05:15:24;;;;;;;14.57;10.40;;;18.40;83.90;;;;;;5049400;28;20155;-67
2023/06/20 05:17:53;;;;;;;13.07;10.17;;;18.40;83.90;;;;;;5045981;28;20045;-68
2023/06/20 05:20:19;;;;;;;14.07;10.00;;;18.40;83.80;;;;;;5033528;28;20287;-68
2023/06/20 05:22:45;;;;;;;12.87;10.00;;;18.50;83.60;;;;;;5049785;28;20297;-66
2023/06/20 05:25:12;;;;;;;12.30;9.30;;;18.60;83.60;;;;;;5049361;28;20368;-66
2023/06/20 05:27:38;;;;;;;12.60;10.07;;;18.60;83.40;;;;;;5032560;28;21070;-66
2023/06/20 05:30:05;;;;;;;13.90;10.00;;;18.70;83.00;;;;;;5048873;28;21270;-66
2023/06/20 05:32:31;;;;;;;13.27;9.63;;;18.80;82.60;;;;;;5047500;28;20307;-66
2023/06/20 05:34:56;;;;;;;14.03;9.60;;;18.80;82.20;;;;;;5046562;28;21108;-66
2023/06/20 05:37:22;;;;;;;17.07;9.83;;;18.80;82.40;;;;;;5048891;28;20528;-66
2023/06/20 05:39:48;;;;;;;15.70;10.10;;;18.90;82.10;;;;;;5046990;28;20182;-66
2023/06/20 05:42:13;;;;;;;13.07;9.37;;;18.90;81.90;;;;;;5046537;28;20033;-66
2023/06/20 05:44:39;;;;;;;14.60;10.50;;;18.90;81.90;;;;;;5029983;28;20072;-66
2023/06/20 05:47:06;;;;;;;14.03;10.10;;;19.00;81.70;;;;;;5047388;28;20390;-66
2023/06/20 05:49:32;;;;;;;11.90;9.37;;;19.00;81.60;;;;;;5045107;28;20133;-66
2023/06/20 05:51:57;;;;;;;13.17;9.73;;;19.00;80.80;;;;;;5027713;28;20304;-66
2023/06/20 05:54:24;;;;;;;13.10;9.77;;;19.10;80.60;;;;;;5046918;28;20335;-66
2023/06/20 05:56:50;;;;;;;15.33;10.47;;;19.00;80.80;;;;;;5047324;28;20158;-66
2023/06/20 05:59:16;;;;;;;12.90;9.40;;;19.10;80.50;;;;;;5047349;28;20466;-66
2023/06/20 06:01:42;;;;;;;12.30;9.43;;;19.10;79.60;;;;;;5045384;28;20311;-66
2023/06/20 06:04:08;;;;;;;12.87;9.57;;;19.10;79.70;;;;;;5027235;28;20037;-66
2023/06/20 06:06:33;;;;;;;13.67;9.67;;;19.10;79.80;;;;;;5045771;28;20033;-66
2023/06/20 06:08:59;;;;;;;13.20;9.60;;;19.20;79.80;;;;;;5043360;28;20041;-66
2023/06/20 06:11:25;;;;;;;15.03;9.83;;;19.20;79.90;;;;;;5046083;28;20041;-66
2023/06/20 06:13:51;;;;;;;13.17;9.87;;;19.20;79.70;;;;;;5046283;28;20102;-66
2023/06/20 06:16:20;;;;;;;11.53;10.00;;;19.30;79.50;;;;;;5028521;28;20044;-66
2023/06/20 06:18:45;;;;;;;13.40;9.87;;;19.30;79.30;;;;;;5046478;28;20036;-66
2023/06/20 06:21:11;;;;;;;13.13;9.90;;;19.30;79.20;;;;;;5052305;28;20037;-66
2023/06/20 06:23:37;;;;;;;14.47;9.77;;;19.40;79.10;;;;;;5046215;28;20064;-66
2023/06/20 06:26:04;;;;;;;13.77;10.13;;;19.50;78.80;;;;;;5029724;28;20040;-66
2023/06/20 06:28:30;;;;;;;12.63;10.00;;;19.60;79.00;;;;;;5039063;28;20112;-66
2023/06/20 06:30:59;;;;;;;12.80;10.20;;;19.60;78.80;;;;;;5045775;28;20420;-66
2023/06/20 06:33:28;;;;;;;10.63;9.43;;;19.70;78.30;;;;;;5045917;28;20065;-66
2023/06/20 06:35:55;;;;;;;14.90;9.57;;;19.80;78.20;;;;;;5046114;28;20043;-66
2023/06/20 06:38:22;;;;;;;12.63;9.53;;;19.90;77.60;;;;;;5046171;28;20040;-66
2023/06/20 06:40:48;;;;;;;14.30;9.47;;;19.90;77.30;;;;;;5040685;28;20041;-66
2023/06/20 06:43:14;;;;;;;12.90;10.13;;;20.00;77.30;;;;;;5047492;28;20081;-66
2023/06/20 06:45:40;;;;;;;12.73;10.33;;;20.10;77.50;;;;;;5047549;28;20504;-66
2023/06/20 06:48:06;;;;;;;13.40;9.90;;;20.20;76.70;;;;;;5043370;28;20374;-66
2023/06/20 06:50:32;;;;;;;13.70;10.10;;;20.40;76.90;;;;;;5041469;28;20048;-66
2023/06/20 06:52:58;;;;;;;13.67;9.80;;;20.60;76.10;;;;;;5047682;28;20045;-66
2023/06/20 06:55:23;;;;;;;13.07;9.90;;;20.70;75.80;;;;;;5047111;28;20043;-66
2023/06/20 06:57:49;;;;;;;11.20;9.80;;;20.90;74.90;;;;;;5043134;28;20033;-66
2023/06/20 07:00:15;;;;;;;13.13;9.30;;;21.00;74.90;;;;;;5046614;28;20522;-66
2023/06/20 07:02:42;;;;;;;11.83;9.67;;;21.10;75.10;;;;;;5047147;28;20056;-66
2023/06/20 07:05:08;;;;;;;13.47;10.33;;;21.20;74.40;;;;;;5047214;28;20051;-66
2023/06/20 07:07:33;;;;;;;12.47;9.90;;;21.30;74.20;;;;;;5047071;28;20128;-66
2023/06/20 07:10:00;;;;;;;11.47;9.10;;;21.40;74.20;;;;;;5030828;28;20052;-66
2023/06/20 07:12:25;;;;;;;11.97;9.77;;;21.60;74.50;;;;;;5030265;28;20439;-66
2023/06/20 07:14:56;;;;;;;11.77;10.07;;;21.70;73.40;;;;;;5047752;28;20045;-66
2023/06/20 07:17:23;;;;;;;15.37;10.30;;;21.80;74.10;;;;;;5047085;28;20497;-66
2023/06/20 07:19:49;;;;;;;10.67;9.57;;;21.90;73.80;;;;;;5029803;28;20444;-66
2023/06/20 07:22:15;;;;;;;14.50;10.40;;;22.00;73.00;;;;;;5047431;28;20040;-66
2023/06/20 07:24:40;;;;;;;11.33;9.43;;;22.10;72.90;;;;;;5047926;28;20039;-68
2023/06/20 07:27:06;;;;;;;10.73;9.63;;;22.20;72.20;;;;;;5047649;28;20041;-69
2023/06/20 07:29:35;;;;;;;12.10;10.03;;;22.20;72.80;;;;;;5046408;28;20049;-69
2023/06/20 07:32:01;;;;;;;11.63;9.83;;;22.40;71.90;;;;;;5047353;28;20056;-69
2023/06/20 07:34:26;;;;;;;13.37;10.17;;;22.40;72.10;;;;;;5047197;28;20520;-69
2023/06/20 07:36:52;;;;;;;13.43;9.57;;;22.50;72.00;;;;;;5047524;28;20051;-69
2023/06/20 07:39:18;;;;;;;12.80;10.87;;;22.60;71.70;;;;;;5047363;28;20045;-69
2023/06/20 07:41:43;;;;;;;11.50;9.90;;;22.70;71.50;;;;;;5047628;28;20037;-69
2023/06/20 07:44:10;;;;;;;13.40;10.60;;;22.80;70.90;;;;;;5047652;28;20040;-68
2023/06/20 07:46:38;;;;;;;13.73;10.20;;;22.80;70.60;;;;;;5042840;28;20045;-67
2023/06/20 07:49:03;;;;;;;11.77;10.37;;;22.90;70.60;;;;;;5048002;28;20041;-68
2023/06/20 07:51:33;;;;;;;13.23;10.07;;;23.00;70.40;;;;;;5046775;28;20037;-68
2023/06/20 07:54:01;;;;;;;11.23;10.07;;;23.10;70.30;;;;;;5054294;28;20057;-68
2023/06/20 07:56:27;;;;;;;11.20;9.97;;;23.10;70.00;;;;;;5042550;28;20462;-68
2023/06/20 07:58:53;;;;;;;14.60;10.30;;;23.30;69.20;;;;;;5047418;28;20120;-68
2023/06/20 08:01:18;;;;;;;11.70;10.03;;;23.40;69.30;;;;;;5046869;28;20393;-68
2023/06/20 08:03:44;;;;;;;11.33;10.13;;;23.60;68.80;;;;;;5046326;28;20041;-68
2023/06/20 08:06:10;;;;;;;12.57;10.10;;;23.70;68.10;;;;;;5029847;28;20041;-67
2023/06/20 08:08:37;;;;;;;11.50;10.30;;;23.90;68.10;;;;;;5044211;28;20508;-68
2023/06/20 08:11:03;;;;;;;11.77;9.73;;;24.10;67.30;;;;;;5047276;28;20477;-68
2023/06/20 08:13:29;;;;;;;12.97;10.57;;;24.30;67.00;;;;;;5049133;28;20045;-68
2023/06/20 08:15:55;;;;;;;11.83;10.33;;;24.40;66.40;;;;;;5051966;28;20041;-68
2023/06/20 08:18:21;;;;;;;12.33;10.17;;;24.60;66.10;;;;;;5051505;28;20507;-68
2023/06/20 08:20:47;;;;;;;13.00;9.83;;;24.70;65.40;;;;;;5051357;28;20036;-68
2023/06/20 08:23:14;;;;;;;11.83;10.70;;;24.70;64.50;;;;;;5051291;28;20095;-68
2023/06/20 08:25:40;;;;;;;11.57;10.33;;;24.80;64.80;;;;;;5045523;28;20052;-68
2023/06/20 08:28:05;;;;;;;12.43;10.13;;;24.90;65.00;;;;;;5051870;28;20058;-69
2023/06/20 08:30:31;;;;;;;12.83;10.97;;;24.90;65.10;;;;;;5047932;28;20496;-69
2023/06/20 08:32:57;;;;;;;12.20;10.07;;;24.90;65.00;;;;;;5048286;28;20079;-68
2023/06/20 08:35:22;;;;;;;13.33;10.27;;;25.00;64.70;;;;;;5050398;28;20037;-69
2023/06/20 08:37:48;;;;;;;11.43;10.10;;;25.00;65.00;;;;;;5048386;28;20107;-68
2023/06/20 08:40:14;;;;;;;12.53;10.27;;;25.10;64.80;;;;;;5043948;28;20041;-68
2023/06/20 08:42:43;;;;;;;12.33;11.03;;;25.30;64.30;;;;;;5050363;28;20049;-68
2023/06/20 08:45:09;;;;;;;11.47;10.27;;;25.40;63.30;;;;;;5066217;28;20115;-68
2023/06/20 08:47:35;;;;;;;13.47;10.80;;;25.50;63.60;;;;;;5039607;28;20083;-69
2023/06/20 08:50:01;;;;;;;11.20;10.03;;;25.50;62.60;;;;;;5040416;28;20456;-69
2023/06/20 08:52:31;;;;;;;12.53;10.80;;;25.50;62.50;;;;;;5041212;28;20072;-68
2023/06/20 08:54:57;;;;;;;10.70;8.93;;;25.50;62.70;;;;;;5037752;28;20049;-68
2023/06/20 08:57:23;;;;;;;11.23;9.97;;;25.50;62.60;;;;;;5039670;28;20040;-68
2023/06/20 08:59:49;;;;;;;13.37;10.13;;;25.70;62.20;;;;;;5044775;28;20122;-68
2023/06/20 09:02:16;;;;;;;12.63;11.33;;;25.80;62.80;;;;;;5056230;28;20064;-68
2023/06/20 09:04:41;;;;;;;13.50;11.00;;;25.90;61.90;;;;;;5042084;28;20052;-68
2023/06/20 09:07:18;;;;;;;17.40;11.20;;;26.00;61.20;;;;;;5060468;28;20036;-68
2023/06/20 09:09:44;;;;;;;12.03;10.73;;;26.00;61.40;;;;;;5045429;28;20036;-68
2023/06/20 09:12:10;;;;;;;12.03;10.80;;;26.00;61.50;;;;;;5046094;28;20901;-68
2023/06/20 09:14:36;;;;;;;13.17;10.83;;;26.10;61.50;;;;;;5030383;28;20080;-68
2023/06/20 09:17:03;;;;;;;12.87;10.27;;;26.20;61.30;;;;;;5044284;28;20033;-68
2023/06/20 09:19:45;;;;;;;11.93;10.50;;;26.20;61.20;;;;;;5041932;28;20307;-68
2023/06/20 09:22:12;;;;;;;11.43;10.17;;;26.30;61.30;;;;;;5057364;28;20045;-68
2023/06/20 09:24:45;;;;;;;10.43;9.33;;;26.40;61.70;;;;;;5046773;28;20040;-68
2023/06/20 09:27:11;;;;;;;13.03;11.37;;;26.70;61.30;;;;;;5045291;28;20048;-68
2023/06/20 09:29:50;;;;;;;12.40;11.00;;;26.90;60.10;;;;;;5048281;28;20071;-68
2023/06/20 09:32:22;;;;;;;15.53;11.37;;;27.00;59.70;;;;;;5031719;28;20041;-68
2023/06/20 09:34:49;;;;;;;14.07;12.27;;;27.10;59.40;;;;;;5027444;28;20037;-69
2023/06/20 09:37:17;;;;;;;13.47;11.20;;;27.10;59.30;;;;;;5064622;28;20551;-69
2023/06/20 09:39:43;;;;;;;13.27;11.03;;;27.10;59.00;;;;;;5046466;28;20037;-69
2023/06/20 09:42:13;;;;;;;13.87;11.03;;;27.30;59.10;;;;;;5048052;28;20459;-69
2023/06/20 09:44:40;;;;;;;12.50;10.57;;;27.40;58.60;;;;;;5046884;28;20045;-68
2023/06/20 09:47:06;;;;;;;11.63;10.47;;;27.40;58.30;;;;;;5063579;28;20548;-68
2023/06/20 09:49:37;;;;;;;10.80;9.70;;;27.40;58.30;;;;;;5047196;28;20613;-69
2023/06/20 09:52:14;;;;;;;13.20;10.20;;;27.50;58.50;;;;;;5045939;28;20072;-69
2023/06/20 09:55:02;;;;;;;10.17;9.17;;;27.60;58.60;;;;;;5040143;28;20049;-69
2023/06/20 09:57:36;;;;;;;11.33;8.83;;;27.80;57.60;;;;;;5044640;28;20063;-69
2023/06/20 10:00:09;;;;;;;10.68;9.55;;;27.90;56.40;;;;;;5047069;28;20041;-69
2023/06/20 10:02:36;;;;;;;13.13;10.37;;;27.80;56.30;;;;;;5041358;28;20106;-69
2023/06/20 10:05:03;;;;;;;11.17;10.07;;;27.90;56.70;;;;;;5046594;28;20037;-69
2023/06/20 10:07:29;;;;;;;10.10;9.20;;;27.90;56.50;;;;;;5059337;28;20094;-69
2023/06/20 10:09:56;;;;;;;9.87;8.53;;;28.00;57.10;;;;;;5048055;28;20141;-69
2023/06/20 10:12:24;;;;;;;9.60;8.33;;;28.10;56.60;;;;;;5044562;28;20097;-69
2023/06/20 10:14:50;;;;;;;9.07;8.03;;;28.20;55.60;;;;;;5048463;28;20033;-69
2023/06/20 10:17:30;;;;;;;10.30;9.00;;;28.20;55.80;;;;;;5030762;28;20072;-69
2023/06/20 10:19:58;;;;;;;10.30;9.30;;;28.30;55.40;;;;;;5049006;28;20118;-69
2023/06/20 10:22:42;;;;;;;10.03;8.93;;;28.40;55.70;;;;;;5046746;28;20044;-69
2023/06/20 10:25:14;;;;;;;10.23;9.20;;;28.40;55.70;;;;;;5047484;28;20548;-69
2023/06/20 10:27:42;;;;;;;11.10;8.30;;;28.40;54.60;;;;;;5044267;28;20512;-69
2023/06/20 10:30:10;;;;;;;10.33;9.17;;;28.30;55.80;;;;;;5055127;28;20049;-69
2023/06/20 10:32:57;;;;;;;10.10;9.00;;;28.30;56.10;;;;;;5038741;28;20069;-69
2023/06/20 10:35:23;;;;;;;9.63;8.70;;;28.40;55.50;;;;;;5044405;28;20459;-69
2023/06/20 10:37:48;;;;;;;10.33;9.23;;;28.40;56.00;;;;;;5041718;28;20135;-69
2023/06/20 10:40:29;;;;;;;9.50;8.53;;;28.50;55.50;;;;;;5040705;28;20052;-69
2023/06/20 10:42:55;;;;;;;10.37;8.17;;;28.70;54.10;;;;;;5041648;28;20037;-69
2023/06/20 10:45:29;;;;;;;8.03;6.83;;;28.60;53.50;;;;;;5059442;28;20094;-69
2023/06/20 10:48:00;;;;;;;8.38;7.57;;;28.60;54.10;;;;;;5045806;28;20076;-69
2023/06/20 10:50:26;;;;;;;7.57;6.77;;;28.60;53.60;;;;;;5046119;28;20037;-69
2023/06/20 10:52:52;;;;;;;9.50;7.50;;;28.60;54.40;;;;;;5043617;28;20103;-69
2023/06/20 10:55:28;;;;;;;10.30;7.80;;;28.70;54.10;;;;;;5042896;28;20037;-69
2023/06/20 10:57:55;;;;;;;8.77;7.87;;;28.90;54.10;;;;;;5043035;28;20060;-69
2023/06/20 11:00:22;;;;;;;9.27;8.27;;;29.00;53.70;;;;;;5045183;28;20392;-69
2023/06/20 11:02:49;;;;;;;9.20;8.17;;;29.10;53.90;;;;;;5045140;28;20400;-69
2023/06/20 11:05:16;;;;;;;9.00;8.20;;;29.20;53.80;;;;;;5044293;28;20049;-69
2023/06/20 11:07:55;;;;;;;8.00;7.20;;;29.30;53.60;;;;;;5047332;28;20394;-69
2023/06/20 11:10:25;;;;;;;8.17;7.37;;;29.40;52.90;;;;;;5045873;28;20048;-69
2023/06/20 11:12:51;;;;;;;8.30;7.30;;;29.40;52.90;;;;;;5047583;28;20041;-69
2023/06/20 11:15:24;;;;;;;8.03;7.07;;;29.50;52.30;;;;;;5047351;28;20044;-69
2023/06/20 11:17:50;;;;;;;6.60;6.00;;;29.60;51.40;;;;;;5048119;28;20079;-69
2023/06/20 11:20:17;;;;;;;5.83;5.30;;;29.70;51.80;;;;;;5048988;28;20055;-69
2023/06/20 11:22:46;;;;;;;7.00;5.53;;;29.80;51.30;;;;;;5047242;28;20524;-69
2023/06/20 11:25:12;;;;;;;6.27;5.50;;;29.80;50.70;;;;;;5048663;28;20032;-69
2023/06/20 11:27:40;;;;;;;7.10;6.40;;;29.80;50.60;;;;;;5047714;28;20037;-69
2023/06/20 11:30:06;;;;;;;6.50;5.90;;;29.90;50.60;;;;;;5048675;28;20040;-69
2023/06/20 11:32:32;;;;;;;8.30;5.80;;;29.90;50.30;;;;;;5047224;28;20067;-69
2023/06/20 11:35:03;;;;;;;6.33;5.73;;;30.00;50.00;;;;;;5048016;28;20412;-69
2023/06/20 11:37:29;;;;;;;5.90;5.20;;;30.00;50.20;;;;;;5062990;28;20041;-69
2023/06/20 11:39:55;;;;;;;6.10;5.47;;;30.00;49.50;;;;;;5048423;28;20475;-69
2023/06/20 11:42:21;;;;;;;5.50;5.00;;;30.10;49.50;;;;;;5045561;28;20160;-70
2023/06/20 11:44:49;;;;;;;6.23;5.63;;;30.10;49.10;;;;;;5047804;28;20044;-69
2023/06/20 11:47:14;;;;;;;5.93;5.37;;;30.20;48.80;;;;;;5046122;28;20382;-69
2023/06/20 11:49:41;;;;;;;6.67;5.43;;;30.20;49.00;;;;;;5046736;28;20041;-69
2023/06/20 11:52:10;;;;;;;7.47;5.30;;;30.30;49.20;;;;;;5046840;28;20044;-69
2023/06/20 11:54:51;;;;;;;6.90;5.10;;;30.40;49.10;;;;;;5038840;28;20037;-69
2023/06/20 11:57:28;;;;;;;5.70;5.10;;;30.50;48.70;;;;;;5043020;28;20116;-69
2023/06/20 11:59:55;;;;;;;6.70;5.20;;;30.60;47.80;;;;;;5038761;28;20045;-70
2023/06/20 12:02:21;;;;;;;10.40;5.77;;;30.70;48.30;;;;;;5022626;28;20064;-69
2023/06/20 12:04:57;;;;;;;5.63;4.93;;;30.70;47.70;;;;;;5045553;28;20041;-69
2023/06/20 12:07:25;;;;;;;6.37;5.40;;;30.80;47.30;;;;;;5043791;28;20536;-69
2023/06/20 12:09:51;;;;;;;6.43;5.80;;;30.90;47.60;;;;;;5029184;28;20041;-69
2023/06/20 12:12:17;;;;;;;5.87;5.27;;;31.10;47.10;;;;;;5045523;28;20033;-69
2023/06/20 12:14:47;;;;;;;5.80;5.07;;;31.30;47.10;;;;;;5045448;28;20037;-68
2023/06/20 12:17:13;;;;;;;6.67;5.67;;;31.50;46.80;;;;;;5045357;28;20048;-68
2023/06/20 12:19:53;;;;;;;6.93;5.87;;;31.50;46.30;;;;;;5046135;28;20504;-68
2023/06/20 12:22:19;;;;;;;6.87;5.67;;;31.40;46.10;;;;;;5045633;28;20044;-68
2023/06/20 12:24:45;;;;;;;6.10;5.30;;;31.20;47.00;;;;;;5044963;28;20056;-68
2023/06/20 12:27:11;;;;;;;6.97;6.27;;;31.20;47.50;;;;;;5044924;28;20045;-68
2023/06/20 12:29:37;;;;;;;6.80;5.40;;;31.30;47.50;;;;;;5045555;28;20113;-69
2023/06/20 12:32:08;;;;;;;6.63;6.03;;;31.40;47.60;;;;;;5028578;28;20083;-68
2023/06/20 12:34:34;;;;;;;8.00;6.57;;;31.70;46.80;;;;;;5046001;28;20152;-69
2023/06/20 12:37:02;;;;;;;6.30;5.70;;;31.80;46.70;;;;;;5045413;28;20210;-69